createdAt,value
2018-06-25T00:00:43.516Z,14.78
2018-06-25T00:01:43.554Z,14.78
2018-06-25T00:02:43.826Z,14.77
2018-06-25T00:03:43.843Z,14.77
2018-06-25T00:04:43.866Z,14.81
2018-06-25T00:05:58.547Z,14.7
2018-06-25T00:06:43.651Z,14.78
2018-06-25T00:07:58.591Z,14.69
2018-06-25T00:08:58.355Z,14.72
2018-06-25T00:09:43.736Z,14.68
2018-06-25T00:10:44.002Z,14.72
2018-06-25T00:11:43.765Z,14.7
2018-06-25T00:12:43.783Z,14.73
2018-06-25T00:13:58.468Z,14.72
2018-06-25T00:14:44.085Z,14.72
2018-06-25T00:15:43.851Z,14.73
2018-06-25T00:16:44.132Z,14.8
2018-06-25T00:17:44.160Z,14.77
2018-06-25T00:18:43.918Z,14.75
2018-06-25T00:19:43.944Z,14.83
2018-06-25T00:20:43.963Z,14.72
2018-06-25T00:21:43.994Z,14.73
2018-06-25T00:22:58.670Z,14.62
2018-06-25T00:23:44.291Z,14.65
2018-06-25T00:24:44.468Z,14.64
2018-06-25T00:25:44.353Z,14.6
2018-06-25T00:26:44.099Z,14.62
2018-06-25T00:27:44.389Z,14.54
2018-06-25T00:28:59.059Z,14.55
2018-06-25T00:29:44.426Z,14.5
2018-06-25T00:30:44.446Z,14.51
2018-06-25T00:31:44.468Z,14.47
2018-06-25T00:32:44.489Z,14.45
2018-06-25T00:33:44.554Z,14.42
2018-06-25T00:34:44.532Z,14.36
2018-06-25T00:35:44.557Z,14.35
2018-06-25T00:36:44.578Z,14.32
2018-06-25T00:37:44.601Z,14.17
2018-06-25T00:38:44.626Z,14.24
2018-06-25T00:39:44.643Z,14.14
2018-06-25T00:40:44.151Z,14.15
2018-06-25T00:41:44.688Z,14.25
2018-06-25T00:42:44.452Z,14.2
2018-06-25T00:43:44.733Z,14.15
2018-06-25T00:45:44.778Z,14.06
2018-06-25T00:46:44.800Z,14.02
2018-06-25T00:47:44.821Z,14.14
2018-06-25T00:48:44.841Z,14.03
2018-06-25T00:49:44.608Z,14.04
2018-06-25T00:50:44.884Z,14.25
2018-06-25T00:51:44.909Z,14.15
2018-06-25T00:52:44.935Z,14.22
2018-06-25T00:53:59.613Z,14.29
2018-06-25T00:54:44.974Z,14.36
2018-06-25T00:55:44.744Z,14.33
2018-06-25T00:56:59.421Z,14.29
2018-06-25T00:57:45.042Z,14.33
2018-06-25T00:58:44.806Z,14.35
2018-06-25T00:59:45.137Z,14.28
2018-06-25T01:00:59.766Z,14.35
2018-06-25T01:01:44.923Z,14.32
2018-06-25T01:02:44.893Z,14.35
2018-06-25T01:03:45.174Z,14.39
2018-06-25T01:05:45.216Z,14.45
2018-06-25T01:06:45.239Z,14.45
2018-06-25T01:07:45.260Z,14.47
2018-06-25T01:08:45.286Z,14.47
2018-06-25T01:09:59.965Z,14.52
2018-06-25T01:10:45.329Z,14.6
2018-06-25T01:11:45.348Z,14.55
2018-06-25T01:12:45.424Z,14.64
2018-06-25T01:13:45.394Z,14.61
2018-06-25T01:14:45.418Z,14.54
2018-06-25T01:15:45.440Z,14.61
2018-06-25T01:17:00.121Z,14.6
2018-06-25T01:18:45.507Z,14.64
2018-06-25T01:19:45.526Z,14.62
2018-06-25T01:20:45.546Z,14.58
2018-06-25T01:21:45.568Z,14.51
2018-06-25T01:22:45.595Z,14.54
2018-06-25T01:23:45.610Z,14.6
2018-06-25T01:24:45.383Z,14.57
2018-06-25T01:25:45.405Z,14.6
2018-06-25T01:27:00.340Z,14.65
2018-06-25T01:27:45.701Z,14.61
2018-06-25T01:28:45.723Z,14.52
2018-06-25T01:29:45.741Z,14.58
2018-06-25T01:30:45.511Z,14.51
2018-06-25T01:31:45.796Z,14.61
2018-06-25T01:33:00.473Z,14.6
2018-06-25T01:34:45.858Z,14.69
2018-06-25T01:35:45.877Z,14.61
2018-06-25T01:38:00.587Z,14.58
2018-06-25T01:38:45.942Z,14.72
2018-06-25T01:39:45.972Z,14.64
2018-06-25T01:41:00.649Z,14.65
2018-06-25T01:41:45.813Z,14.62
2018-06-25T01:42:46.036Z,14.64
2018-06-25T01:43:46.053Z,14.62
2018-06-25T01:44:45.815Z,14.62
2018-06-25T01:45:45.583Z,14.58
2018-06-25T01:46:46.121Z,14.65
2018-06-25T01:47:46.140Z,14.68
2018-06-25T01:49:00.825Z,14.62
2018-06-25T01:49:46.187Z,14.75
2018-06-25T01:51:46.235Z,14.68
2018-06-25T01:52:46.254Z,14.65
2018-06-25T01:53:46.273Z,14.62
2018-06-25T01:54:46.305Z,14.68
2018-06-25T01:55:46.061Z,14.77
2018-06-25T01:57:01.003Z,14.7
2018-06-25T01:57:46.363Z,14.72
2018-06-25T01:58:46.129Z,14.69
2018-06-25T01:59:46.249Z,14.64
2018-06-25T02:00:46.431Z,14.62
2018-06-25T02:01:46.194Z,14.65
2018-06-25T02:02:46.480Z,14.62
2018-06-25T02:04:01.159Z,14.62
2018-06-25T02:04:46.517Z,14.64
2018-06-25T02:05:46.540Z,14.62
2018-06-25T02:06:46.566Z,14.58
2018-06-25T02:07:46.335Z,14.47
2018-06-25T02:08:46.350Z,14.47
2018-06-25T02:10:46.649Z,14.52
2018-06-25T02:11:46.674Z,14.55
2018-06-25T02:12:46.693Z,14.57
2018-06-25T02:13:46.716Z,14.5
2018-06-25T02:14:46.744Z,14.61
2018-06-25T02:15:46.510Z,14.69
2018-06-25T02:16:46.782Z,14.61
2018-06-25T02:17:46.805Z,14.69
2018-06-25T02:18:46.829Z,14.54
2018-06-25T02:19:46.591Z,14.61
2018-06-25T02:20:46.610Z,14.54
2018-06-25T02:21:46.891Z,14.54
2018-06-25T02:22:46.914Z,14.58
2018-06-25T02:23:46.938Z,14.64
2018-06-25T02:25:46.982Z,14.68
2018-06-25T02:26:47.002Z,14.61
2018-06-25T02:27:47.022Z,14.6
2018-06-25T02:28:47.053Z,14.7
2018-06-25T02:29:47.068Z,14.54
2018-06-25T02:30:46.834Z,14.61
2018-06-25T02:31:47.113Z,14.62
2018-06-25T02:32:47.148Z,14.6
2018-06-25T02:33:46.900Z,14.6
2018-06-25T02:34:47.199Z,14.57
2018-06-25T02:36:01.604Z,14.6
2018-06-25T02:36:47.229Z,14.6
2018-06-25T02:37:47.269Z,14.62
2018-06-25T02:38:47.739Z,14.6
2018-06-25T02:39:47.286Z,14.64
2018-06-25T02:40:47.316Z,14.57
2018-06-25T02:41:47.354Z,14.54
2018-06-25T02:42:47.355Z,14.52
2018-06-25T02:43:47.381Z,14.62
2018-06-25T02:45:47.428Z,14.54
2018-06-25T02:47:47.472Z,14.68
2018-06-25T02:48:47.238Z,14.62
2018-06-25T02:49:47.507Z,14.68
2018-06-25T02:50:47.273Z,14.51
2018-06-25T02:52:02.218Z,14.64
2018-06-25T02:52:47.624Z,14.61
2018-06-25T02:53:47.598Z,14.6
2018-06-25T02:54:47.646Z,14.52
2018-06-25T02:55:47.392Z,14.57
2018-06-25T02:56:47.665Z,14.61
2018-06-25T02:57:47.683Z,14.64
2018-06-25T02:58:47.706Z,14.5
2018-06-25T02:59:47.728Z,14.58
2018-06-25T03:01:02.413Z,14.57
2018-06-25T03:01:47.777Z,14.6
2018-06-25T03:02:47.896Z,14.64
2018-06-25T03:03:47.561Z,14.68
2018-06-25T03:04:47.841Z,14.68
2018-06-25T03:05:47.865Z,14.68
2018-06-25T03:06:47.888Z,14.65
2018-06-25T03:08:02.566Z,14.64
2018-06-25T03:08:47.684Z,14.72
2018-06-25T03:09:47.691Z,14.78
2018-06-25T03:10:47.971Z,14.78
2018-06-25T03:11:47.741Z,14.77
2018-06-25T03:12:47.758Z,14.86
2018-06-25T03:13:48.040Z,14.81
2018-06-25T03:14:48.059Z,14.78
2018-06-25T03:15:48.082Z,14.8
2018-06-25T03:17:02.764Z,14.75
2018-06-25T03:17:48.127Z,14.81
2018-06-25T03:19:02.808Z,14.72
2018-06-25T03:19:47.912Z,14.72
2018-06-25T03:20:47.944Z,14.83
2018-06-25T03:22:48.239Z,14.86
2018-06-25T03:24:02.927Z,14.83
2018-06-25T03:24:48.020Z,14.95
2018-06-25T03:25:48.303Z,14.95
2018-06-25T03:26:48.326Z,15.06
2018-06-25T03:27:48.352Z,15.02
2018-06-25T03:28:48.373Z,15.07
2018-06-25T03:29:48.390Z,14.95
2018-06-25T03:30:48.420Z,14.95
2018-06-25T03:32:03.097Z,14.91
2018-06-25T03:32:48.196Z,15.03
2018-06-25T03:34:03.138Z,15.01
2018-06-25T03:34:48.498Z,15.03
2018-06-25T03:35:48.268Z,14.96
2018-06-25T03:36:48.286Z,14.95
2018-06-25T03:37:48.312Z,15.07
2018-06-25T03:39:03.250Z,15.1
2018-06-25T03:39:48.355Z,15.07
2018-06-25T03:40:48.396Z,14.99
2018-06-25T03:41:48.145Z,15.1
2018-06-25T03:42:48.681Z,15.03
2018-06-25T03:43:48.702Z,14.96
2018-06-25T03:44:48.733Z,14.98
2018-06-25T03:45:48.744Z,15.06
2018-06-25T03:46:48.770Z,15.02
2018-06-25T03:47:48.790Z,15.02
2018-06-25T03:48:48.812Z,15.11
2018-06-25T03:49:48.945Z,15.11
2018-06-25T03:51:48.877Z,15.09
2018-06-25T03:52:48.909Z,15.11
2018-06-25T03:53:48.927Z,15.02
2018-06-25T03:54:48.949Z,14.92
2018-06-25T03:55:48.708Z,14.98
2018-06-25T03:56:48.732Z,14.94
2018-06-25T03:57:49.020Z,15.09
2018-06-25T03:59:49.057Z,15.03
2018-06-25T04:00:48.822Z,15.13
2018-06-25T04:01:49.103Z,15.2
2018-06-25T04:02:49.133Z,15.27
2018-06-25T04:03:49.149Z,15.16
2018-06-25T04:05:03.825Z,15.31
2018-06-25T04:05:49.189Z,15.31
2018-06-25T04:06:49.214Z,15.29
2018-06-25T04:07:49.238Z,15.34
2018-06-25T04:08:49.252Z,15.21
2018-06-25T04:09:49.280Z,15.17
2018-06-25T04:11:49.322Z,15.29
2018-06-25T04:12:49.352Z,15.31
2018-06-25T04:13:49.364Z,15.25
2018-06-25T04:14:49.387Z,15.17
2018-06-25T04:15:49.412Z,15.2
2018-06-25T04:16:48.918Z,15.16
2018-06-25T04:17:49.453Z,15.27
2018-06-25T04:19:04.138Z,15.28
2018-06-25T04:19:49.503Z,15.32
2018-06-25T04:20:49.049Z,15.36
2018-06-25T04:21:49.544Z,15.43
2018-06-25T04:22:49.566Z,15.43
2018-06-25T04:23:49.842Z,15.49
2018-06-25T04:24:49.352Z,15.41
2018-06-25T04:25:49.634Z,15.39
2018-06-25T04:27:04.058Z,15.47
2018-06-25T04:27:49.419Z,15.54
2018-06-25T04:28:49.468Z,15.54
2018-06-25T04:29:49.719Z,15.57
2018-06-25T04:30:50.067Z,15.57
2018-06-25T04:31:49.519Z,15.72
2018-06-25T04:32:49.794Z,15.65
2018-06-25T04:33:49.553Z,15.69
2018-06-25T04:34:49.574Z,15.54
2018-06-25T04:36:04.518Z,15.6
2018-06-25T04:37:04.280Z,15.56
2018-06-25T04:37:49.901Z,15.51
2018-06-25T04:38:49.933Z,15.59
2018-06-25T04:39:49.687Z,15.53
2018-06-25T04:41:49.990Z,15.65
2018-06-25T04:43:04.416Z,15.72
2018-06-25T04:43:50.034Z,15.74
2018-06-25T04:45:50.083Z,15.83
2018-06-25T04:46:50.101Z,15.82
2018-06-25T04:47:49.871Z,15.87
2018-06-25T04:48:50.153Z,15.9
2018-06-25T04:49:50.173Z,15.84
2018-06-25T04:50:50.204Z,15.96
2018-06-25T04:52:04.875Z,15.94
2018-06-25T04:52:50.238Z,16.08
2018-06-25T04:54:04.662Z,16.21
2018-06-25T04:54:50.029Z,16.21
2018-06-25T04:55:50.047Z,16.17
2018-06-25T04:56:50.332Z,16.28
2018-06-25T04:58:05.020Z,16.39
2018-06-25T04:59:04.775Z,16.27
2018-06-25T04:59:50.136Z,16.01
2018-06-25T05:00:50.267Z,16.08
2018-06-25T05:01:50.444Z,16.07
2018-06-25T05:02:50.461Z,16.2
2018-06-25T05:03:50.484Z,16.25
2018-06-25T05:04:50.508Z,16.28
2018-06-25T05:05:50.535Z,16.28
2018-06-25T05:06:50.293Z,16.43
2018-06-25T05:07:50.318Z,16.41
2018-06-25T05:09:05.006Z,16.81
2018-06-25T05:09:50.629Z,17.06
2018-06-25T05:10:50.646Z,17.22
2018-06-25T05:11:50.414Z,17.77
2018-06-25T05:12:50.177Z,18.08
2018-06-25T05:14:05.374Z,18.27
2018-06-25T05:14:50.742Z,18.27
2018-06-25T05:15:50.761Z,18.2
2018-06-25T05:16:50.788Z,18.17
2018-06-25T05:17:50.808Z,18.3
2018-06-25T05:18:50.578Z,18.48
2018-06-25T05:19:50.595Z,18.73
2018-06-25T05:20:50.877Z,18.76
2018-06-25T05:21:50.900Z,18.62
2018-06-25T05:22:50.925Z,18.6
2018-06-25T05:24:05.353Z,18.33
2018-06-25T05:24:50.970Z,18.48
2018-06-25T05:25:51.104Z,18.36
2018-06-25T05:26:51.018Z,18.41
2018-06-25T05:27:51.044Z,18.42
2018-06-25T05:28:51.069Z,18.42
2018-06-25T05:29:50.834Z,18.35
2018-06-25T05:30:51.121Z,18.42
2018-06-25T05:32:51.162Z,18.41
2018-06-25T05:35:51.237Z,18.45
2018-06-25T05:36:51.257Z,18.41
2018-06-25T05:37:51.023Z,18.62
2018-06-25T05:39:05.969Z,19.61
2018-06-25T05:39:51.170Z,20.01
2018-06-25T05:40:51.358Z,20.14
2018-06-25T05:41:51.379Z,20.06
2018-06-25T05:42:51.406Z,20.01
2018-06-25T05:43:51.427Z,19.77
2018-06-25T05:44:51.453Z,19.43
2018-06-25T05:46:05.881Z,19.22
2018-06-25T05:46:51.499Z,18.88
2018-06-25T05:48:51.677Z,19.16
2018-06-25T05:49:51.315Z,19.46
2018-06-25T05:50:51.598Z,20.23
2018-06-25T05:51:51.723Z,21.43
2018-06-25T05:53:06.311Z,22.57
2018-06-25T05:53:51.670Z,22.49
2018-06-25T05:54:51.707Z,23.01
2018-06-25T05:55:51.722Z,23.53
2018-06-25T05:56:51.754Z,23.6
2018-06-25T05:57:51.777Z,23.02
2018-06-25T05:58:51.886Z,22.27
2018-06-25T05:59:51.826Z,21.72
2018-06-25T06:00:51.853Z,21.52
2018-06-25T06:02:06.551Z,21.17
2018-06-25T06:02:51.904Z,20.88
2018-06-25T06:03:51.933Z,20.61
2018-06-25T06:04:51.697Z,20.5
2018-06-25T06:05:51.985Z,20.66
2018-06-25T06:06:52.009Z,20.77
2018-06-25T06:07:52.036Z,20.97
2018-06-25T06:08:52.061Z,21.34
2018-06-25T06:09:52.088Z,21.86
2018-06-25T06:11:06.774Z,21.96
2018-06-25T06:11:52.136Z,22.15
2018-06-25T06:12:51.930Z,22.1
2018-06-25T06:13:52.307Z,21.88
2018-06-25T06:14:52.251Z,22.18
2018-06-25T06:15:52.246Z,22.33
2018-06-25T06:16:52.269Z,21.84
2018-06-25T06:18:06.955Z,21.59
2018-06-25T06:18:52.063Z,21.44
2018-06-25T06:19:51.829Z,21.38
2018-06-25T06:20:52.126Z,21.32
2018-06-25T06:21:52.407Z,21.61
2018-06-25T06:22:52.166Z,22.24
2018-06-25T06:23:52.454Z,22.91
2018-06-25T06:24:52.227Z,23.63
2018-06-25T06:25:52.503Z,24.3
2018-06-25T06:26:52.274Z,24.49
2018-06-25T06:27:52.557Z,23.94
2018-06-25T06:28:52.588Z,23.85
2018-06-25T06:29:52.354Z,24.31
2018-06-25T06:30:52.641Z,24.9
2018-06-25T06:31:52.667Z,25.24
2018-06-25T06:32:52.437Z,25.03
2018-06-25T06:34:07.389Z,24.52
2018-06-25T06:34:52.748Z,24.47
2018-06-25T06:35:52.830Z,24.47
2018-06-25T06:36:52.807Z,23.61
2018-06-25T06:38:07.500Z,22.95
2018-06-25T06:38:52.861Z,22.72
2018-06-25T06:39:53.108Z,22.72
2018-06-25T06:40:52.924Z,23.04
2018-06-25T06:41:52.941Z,23.32
2018-06-25T06:42:52.971Z,23.69
2018-06-25T06:43:53.000Z,23.83
2018-06-25T06:44:53.026Z,23.23
2018-06-25T06:45:53.056Z,23.12
2018-06-25T06:46:52.828Z,23.47
2018-06-25T06:47:53.110Z,23.43
2018-06-25T06:49:07.546Z,23.35
2018-06-25T06:49:53.165Z,23.12
2018-06-25T06:51:07.863Z,22.58
2018-06-25T06:51:52.963Z,22.27
2018-06-25T06:52:53.249Z,22.02
2018-06-25T06:53:53.019Z,22.14
2018-06-25T06:54:53.301Z,22.25
2018-06-25T06:55:53.333Z,22.2
2018-06-25T06:57:08.022Z,22.35
2018-06-25T06:57:53.610Z,22.97
2018-06-25T06:58:53.415Z,23.43
2018-06-25T06:59:53.185Z,24.43
2018-06-25T07:00:53.210Z,25.39
2018-06-25T07:01:53.496Z,26.02
2018-06-25T07:02:53.524Z,25.73
2018-06-25T07:03:53.551Z,25.3
2018-06-25T07:04:53.825Z,24.78
2018-06-25T07:05:53.349Z,24.53
2018-06-25T07:06:53.642Z,24.13
2018-06-25T07:07:53.664Z,23.79
2018-06-25T07:09:53.728Z,23.28
2018-06-25T07:10:53.761Z,23.01
2018-06-25T07:12:08.185Z,22.6
2018-06-25T07:12:53.806Z,22.25
2018-06-25T07:13:53.832Z,22.18
2018-06-25T07:14:53.861Z,22.12
2018-06-25T07:15:53.638Z,21.79
2018-06-25T07:16:53.969Z,21.49
2018-06-25T07:17:53.953Z,21.31
2018-06-25T07:18:53.971Z,21.12
2018-06-25T07:19:53.995Z,20.87
2018-06-25T07:21:08.428Z,20.67
2018-06-25T07:21:53.791Z,20.61
2018-06-25T07:22:54.113Z,20.55
2018-06-25T07:24:54.183Z,20.18
2018-06-25T07:25:54.154Z,20.26
2018-06-25T07:26:54.186Z,19.95
2018-06-25T07:27:54.217Z,19.59
2018-06-25T07:28:54.370Z,19.55
2018-06-25T07:29:54.287Z,19.73
2018-06-25T07:30:54.296Z,19.98
2018-06-25T07:31:54.361Z,20.23
2018-06-25T07:32:54.361Z,19.63
2018-06-25T07:33:54.375Z,19.74
2018-06-25T07:34:54.390Z,19.83
2018-06-25T07:35:54.153Z,20.02
2018-06-25T07:37:09.099Z,20.17
2018-06-25T07:37:54.203Z,20.17
2018-06-25T07:38:54.486Z,20.13
2018-06-25T07:39:54.510Z,20.03
2018-06-25T07:40:54.543Z,19.91
2018-06-25T07:41:54.564Z,19.74
2018-06-25T07:43:54.362Z,19.59
2018-06-25T07:44:54.641Z,19.47
2018-06-25T07:45:54.409Z,19.51
2018-06-25T07:46:54.687Z,19.36
2018-06-25T07:48:54.742Z,19.31
2018-06-25T07:49:54.768Z,19.11
2018-06-25T07:50:54.891Z,19.02
2018-06-25T07:51:54.557Z,19.06
2018-06-25T07:53:09.526Z,19
2018-06-25T07:53:54.866Z,19.08
2018-06-25T07:54:54.634Z,18.87
2018-06-25T07:55:54.663Z,19.04
2018-06-25T07:56:55.042Z,19.04
2018-06-25T07:58:55.001Z,18.88
2018-06-25T07:59:54.794Z,18.92
2018-06-25T08:00:55.043Z,19.14
2018-06-25T08:01:54.805Z,19.1
2018-06-25T08:02:54.832Z,19.02
2018-06-25T08:03:55.114Z,19.07
2018-06-25T08:04:55.143Z,18.81
2018-06-25T08:05:54.927Z,18.88
2018-06-25T08:06:55.198Z,18.73
2018-06-25T08:07:54.953Z,18.73
2018-06-25T08:09:09.896Z,18.67
2018-06-25T08:09:55.131Z,18.76
2018-06-25T08:10:55.284Z,18.75
2018-06-25T08:11:55.309Z,18.82
2018-06-25T08:12:55.073Z,18.81
2018-06-25T08:13:55.355Z,18.82
2018-06-25T08:14:55.380Z,18.55
2018-06-25T08:15:55.147Z,18.48
2018-06-25T08:16:55.442Z,18.48
2018-06-25T08:17:55.453Z,18.44
2018-06-25T08:19:10.139Z,18.67
2018-06-25T08:19:55.249Z,18.85
2018-06-25T08:20:55.532Z,18.67
2018-06-25T08:21:55.575Z,18.82
2018-06-25T08:22:55.322Z,18.63
2018-06-25T08:24:10.263Z,18.76
2018-06-25T08:24:55.625Z,18.75
2018-06-25T08:25:55.650Z,18.91
2018-06-25T08:26:55.416Z,18.87
2018-06-25T08:27:55.697Z,18.88
2018-06-25T08:28:55.740Z,18.98
2018-06-25T08:29:55.647Z,18.9
2018-06-25T08:31:10.435Z,18.92
2018-06-25T08:31:55.797Z,18.85
2018-06-25T08:32:55.562Z,18.84
2018-06-25T08:33:56.134Z,18.87
2018-06-25T08:34:55.873Z,18.75
2018-06-25T08:35:55.655Z,18.84
2018-06-25T08:36:56.021Z,18.91
2018-06-25T08:37:55.949Z,18.95
2018-06-25T08:38:55.968Z,18.88
2018-06-25T08:40:56.014Z,19.02
2018-06-25T08:42:56.069Z,18.88
2018-06-25T08:44:56.113Z,19.14
2018-06-25T08:45:56.341Z,19.48
2018-06-25T08:46:56.165Z,19.83
2018-06-25T08:47:56.195Z,20.32
2018-06-25T08:49:10.873Z,20.66
2018-06-25T08:49:56.236Z,20.88
2018-06-25T08:50:56.263Z,20.88
2018-06-25T08:51:56.436Z,20.88
2018-06-25T08:52:56.317Z,20.58
2018-06-25T08:53:56.330Z,20.43
2018-06-25T08:54:56.356Z,20.24
2018-06-25T08:56:11.045Z,20.29
2018-06-25T08:56:56.584Z,20.13
2018-06-25T08:58:11.102Z,20.39
2018-06-25T08:59:11.126Z,20.59
2018-06-25T08:59:56.533Z,20.74
2018-06-25T09:00:56.506Z,20.77
2018-06-25T09:01:56.534Z,20.64
2018-06-25T09:02:56.320Z,20.51
2018-06-25T09:03:56.581Z,20.59
2018-06-25T09:04:56.607Z,20.57
2018-06-25T09:05:56.632Z,20.41
2018-06-25T09:06:56.658Z,20.7
2018-06-25T09:07:56.680Z,20.99
2018-06-25T09:08:56.709Z,21.5
2018-06-25T09:09:56.746Z,22.17
2018-06-25T09:12:11.443Z,22.24
2018-06-25T09:13:56.831Z,22.72
2018-06-25T09:14:56.869Z,23
2018-06-25T09:15:56.885Z,23.54
2018-06-25T09:16:56.652Z,23.69
2018-06-25T09:17:56.934Z,23.8
2018-06-25T09:18:56.959Z,24.09
2018-06-25T09:19:56.995Z,23.97
2018-06-25T09:20:57.012Z,23.85
2018-06-25T09:21:57.042Z,23.43
2018-06-25T09:22:57.063Z,23.13
2018-06-25T09:23:57.090Z,23.01
2018-06-25T09:24:57.117Z,23.17
2018-06-25T09:25:57.143Z,23.38
2018-06-25T09:26:57.171Z,23.72
2018-06-25T09:28:11.856Z,23.76
2018-06-25T09:28:57.229Z,23.9
2018-06-25T09:29:57.249Z,23.97
2018-06-25T09:30:57.275Z,23.68
2018-06-25T09:31:57.306Z,23.42
2018-06-25T09:32:57.173Z,23.16
2018-06-25T09:33:57.361Z,22.98
2018-06-25T09:34:57.125Z,22.49
2018-06-25T09:35:57.150Z,22.22
2018-06-25T09:36:57.439Z,22.09
2018-06-25T09:37:57.203Z,22.09
2018-06-25T09:38:57.487Z,22.3
2018-06-25T09:39:57.514Z,22.68
2018-06-25T09:40:57.897Z,22.68
2018-06-25T09:41:57.567Z,22.17
2018-06-25T09:42:57.590Z,22.31
2018-06-25T09:44:12.282Z,21.98
2018-06-25T09:44:57.654Z,22.22
2018-06-25T09:46:57.789Z,22.35
2018-06-25T09:47:57.724Z,22.67
2018-06-25T09:48:57.754Z,23.05
2018-06-25T09:49:57.774Z,23.42
2018-06-25T09:50:57.938Z,23.48
2018-06-25T09:51:57.832Z,23.75
2018-06-25T09:52:57.857Z,23.78
2018-06-25T09:53:57.883Z,23.53
2018-06-25T09:54:57.444Z,23.4
2018-06-25T09:55:57.936Z,23.32
2018-06-25T09:56:57.962Z,23.32
2018-06-25T09:57:57.992Z,23.32
2018-06-25T09:59:12.418Z,23.38
2018-06-25T09:59:58.051Z,23.25
2018-06-25T10:00:58.071Z,22.91
2018-06-25T10:02:58.125Z,22.92
2018-06-25T10:03:58.149Z,23.12
2018-06-25T10:05:12.837Z,23.38
2018-06-25T10:05:58.301Z,23.58
2018-06-25T10:06:58.227Z,23.27
2018-06-25T10:07:58.250Z,24.03
2018-06-25T10:08:58.291Z,24.24
2018-06-25T10:09:58.305Z,24.77
2018-06-25T10:10:58.075Z,25.33
2018-06-25T10:11:58.103Z,26.3
2018-06-25T10:12:58.384Z,26.76
2018-06-25T10:13:58.411Z,26.97
2018-06-25T10:14:58.440Z,27.06
2018-06-25T10:15:58.210Z,27.17
2018-06-25T10:16:58.495Z,27.34
2018-06-25T10:17:58.525Z,27.28
2018-06-25T10:18:58.556Z,27.07
2018-06-25T10:19:58.599Z,26.99
2018-06-25T10:20:58.344Z,26.57
2018-06-25T10:21:58.375Z,26.06
2018-06-25T10:22:58.658Z,25.42
2018-06-25T10:23:58.433Z,25.05
2018-06-25T10:24:58.712Z,24.76
2018-06-25T10:25:58.484Z,24.8
2018-06-25T10:27:13.430Z,24.1
2018-06-25T10:27:58.795Z,24.02
2018-06-25T10:29:58.848Z,23.79
2018-06-25T10:31:13.540Z,23.95
2018-06-25T10:32:58.679Z,24.52
2018-06-25T10:34:13.628Z,25.05
2018-06-25T10:34:59.074Z,25.35
2018-06-25T10:35:59.020Z,25.61
2018-06-25T10:36:58.789Z,25.38
2018-06-25T10:37:58.813Z,25.38
2018-06-25T10:38:59.111Z,25.57
2018-06-25T10:39:58.923Z,25.72
2018-06-25T10:40:59.150Z,25.8
2018-06-25T10:42:59.213Z,25.28
2018-06-25T10:43:59.247Z,25.38
2018-06-25T10:45:59.295Z,25.09
2018-06-25T10:47:13.982Z,24.91
2018-06-25T10:47:59.351Z,24.71
2018-06-25T10:48:59.372Z,24.53
2018-06-25T10:49:59.411Z,24.45
2018-06-25T10:50:59.432Z,24.42
2018-06-25T10:51:59.457Z,24.4
2018-06-25T10:52:59.483Z,24.61
2018-06-25T10:54:14.177Z,24.46
2018-06-25T10:55:14.203Z,24.52
2018-06-25T10:56:14.228Z,24.53
2018-06-25T10:57:14.279Z,24.35
2018-06-25T10:57:59.622Z,24.37
2018-06-25T10:58:59.656Z,24.67
2018-06-25T11:00:00.632Z,24.57
2018-06-25T11:00:59.448Z,24.58
2018-06-25T11:01:59.737Z,24.6
2018-06-25T11:03:14.421Z,24.67
2018-06-25T11:05:59.742Z,24.49
2018-06-25T11:06:59.877Z,24.4
2018-06-25T11:07:59.899Z,24.47
2018-06-25T11:08:59.934Z,24.24
2018-06-25T11:09:59.791Z,24.2
2018-06-25T11:10:59.981Z,24.35
2018-06-25T11:12:00.020Z,24.52
2018-06-25T11:13:00.174Z,24.37
2018-06-25T11:14:00.064Z,23.66
2018-06-25T11:15:00.101Z,23.87
2018-06-25T11:16:00.115Z,24.1
2018-06-25T11:17:00.152Z,24.3
2018-06-25T11:18:00.179Z,24.43
2018-06-25T11:19:14.860Z,24.4
2018-06-25T11:20:00.225Z,24.37
2018-06-25T11:21:00.251Z,24.09
2018-06-25T11:22:00.277Z,23.78
2018-06-25T11:23:00.308Z,23.58
2018-06-25T11:24:00.345Z,23.5
2018-06-25T11:25:00.359Z,23.8
2018-06-25T11:26:00.386Z,23.87
2018-06-25T11:28:00.186Z,23.47
2018-06-25T11:29:15.130Z,23.5
2018-06-25T11:30:00.238Z,23.6
2018-06-25T11:31:00.524Z,23.75
2018-06-25T11:33:00.575Z,23.57
2018-06-25T11:34:15.270Z,23.87
2018-06-25T11:35:00.642Z,24.28
2018-06-25T11:36:00.659Z,24.67
2018-06-25T11:37:00.685Z,24.69
2018-06-25T11:38:15.378Z,24.24
2018-06-25T11:39:00.743Z,23.87
2018-06-25T11:40:00.513Z,23.48
2018-06-25T11:41:00.534Z,23.38
2018-06-25T11:42:01.049Z,23.53
2018-06-25T11:43:00.850Z,24.05
2018-06-25T11:44:15.532Z,23.97
2018-06-25T11:45:00.642Z,24.2
2018-06-25T11:46:00.669Z,24.46
2018-06-25T11:49:01.008Z,25
2018-06-25T11:50:00.777Z,24.83
2018-06-25T11:51:00.803Z,25.15
2018-06-25T11:52:01.089Z,25.32
2018-06-25T11:53:01.116Z,25.18
2018-06-25T11:54:00.886Z,25.08
2018-06-25T11:55:01.166Z,25.43
2018-06-25T11:56:00.942Z,25.65
2018-06-25T11:57:15.886Z,25.79
2018-06-25T11:58:01.250Z,25.9
2018-06-25T11:59:01.276Z,25.97
2018-06-25T12:00:16.045Z,25.91
2018-06-25T12:01:01.336Z,26.02
2018-06-25T12:02:01.587Z,25.67
2018-06-25T12:03:01.898Z,25.73
2018-06-25T12:04:01.414Z,25.92
2018-06-25T12:05:01.448Z,25.77
2018-06-25T12:06:16.128Z,25.61
2018-06-25T12:07:01.499Z,25.73
2018-06-25T12:09:01.551Z,25.83
2018-06-25T12:10:01.572Z,25.62
2018-06-25T12:11:01.603Z,25.61
2018-06-25T12:12:01.684Z,25.54
2018-06-25T12:13:01.669Z,25.42
2018-06-25T12:14:01.889Z,25.25
2018-06-25T12:15:01.452Z,25.36
2018-06-25T12:16:01.579Z,25.47
2018-06-25T12:17:01.770Z,25.36
2018-06-25T12:18:01.892Z,25.36
2018-06-25T12:19:01.613Z,25.23
2018-06-25T12:20:02.150Z,24.93
2018-06-25T12:22:16.563Z,24.91
2018-06-25T12:23:01.722Z,24.57
2018-06-25T12:24:01.698Z,24.61
2018-06-25T12:25:01.988Z,24.53
2018-06-25T12:26:02.022Z,24.62
2018-06-25T12:27:02.046Z,24.98
2018-06-25T12:28:01.808Z,25.09
2018-06-25T12:29:02.098Z,25.28
2018-06-25T12:30:16.780Z,25.21
2018-06-25T12:31:02.147Z,24.96
2018-06-25T12:32:01.741Z,24.91
2018-06-25T12:33:02.205Z,24.9
2018-06-25T12:34:02.229Z,25.17
2018-06-25T12:35:16.927Z,25.09
2018-06-25T12:36:02.294Z,25.27
2018-06-25T12:37:02.303Z,25.43
2018-06-25T12:38:16.994Z,25.4
2018-06-25T12:39:02.116Z,25.21
2018-06-25T12:41:02.418Z,25.18
2018-06-25T12:42:02.442Z,24.52
2018-06-25T12:43:02.344Z,24.64
2018-06-25T12:44:02.509Z,24.88
2018-06-25T12:45:02.540Z,25.08
2018-06-25T12:46:02.342Z,25.3
2018-06-25T12:47:02.321Z,25.3
2018-06-25T12:48:17.272Z,25.54
2018-06-25T12:49:17.034Z,25.13
2018-06-25T12:50:02.662Z,24.78
2018-06-25T12:51:02.690Z,25.17
2018-06-25T12:52:02.710Z,25.36
2018-06-25T12:53:02.739Z,25.17
2018-06-25T12:54:17.426Z,25.43
2018-06-25T12:55:02.791Z,25.58
2018-06-25T12:56:02.829Z,25.69
2018-06-25T12:57:02.675Z,25.65
2018-06-25T12:59:02.900Z,25.47
2018-06-25T13:00:02.926Z,25.38
2018-06-25T13:01:02.959Z,25.1
2018-06-25T13:02:02.728Z,25
2018-06-25T13:03:02.758Z,25.03
2018-06-25T13:04:17.702Z,24.73
2018-06-25T13:05:03.071Z,24.77
2018-06-25T13:06:03.089Z,24.78
2018-06-25T13:07:03.120Z,25.02
2018-06-25T13:08:03.309Z,24.96
2018-06-25T13:09:17.836Z,24.95
2018-06-25T13:10:02.940Z,24.99
2018-06-25T13:11:02.711Z,25.21
2018-06-25T13:12:03.255Z,25.17
2018-06-25T13:13:03.020Z,25.14
2018-06-25T13:14:03.306Z,25.32
2018-06-25T13:15:03.575Z,25.51
2018-06-25T13:16:03.364Z,25.52
2018-06-25T13:17:03.393Z,25.28
2018-06-25T13:18:03.161Z,25.43
2018-06-25T13:19:03.183Z,25.54
2018-06-25T13:20:03.478Z,25.27
2018-06-25T13:21:02.981Z,25.2
2018-06-25T13:22:03.265Z,25.05
2018-06-25T13:23:03.289Z,24.9
2018-06-25T13:24:03.320Z,24.99
2018-06-25T13:25:03.344Z,25.28
2018-06-25T13:26:03.373Z,25.43
2018-06-25T13:27:03.664Z,25.27
2018-06-25T13:28:03.524Z,25.33
2018-06-25T13:29:03.715Z,25.13
2018-06-25T13:30:03.868Z,25.23
2018-06-25T13:31:04.014Z,25.33
2018-06-25T13:32:03.793Z,25.54
2018-06-25T13:33:03.561Z,25.62
2018-06-25T13:34:03.849Z,25.43
2018-06-25T13:35:18.533Z,25.45
2018-06-25T13:36:03.641Z,25.39
2018-06-25T13:37:03.925Z,25.61
2018-06-25T13:38:03.706Z,25.7
2018-06-25T13:39:03.987Z,25.43
2018-06-25T13:40:03.750Z,25.47
2018-06-25T13:41:18.706Z,25.2
2018-06-25T13:42:04.064Z,24.93